sensor_id;sensor_type;location;lat;lon;timestamp;pressure;altitude;pressure_sealevel;temperature;humidity
15914;BME280;8055;51.930;8.840;2024-03-22T00:02:06;76602.81;;;-145.72;100.00
15914;BME280;8055;51.930;8.840;2024-03-22T00:04:32;76600.75;;;-145.72;100.00
15914;BME280;8055;51.930;8.840;2024-03-22T00:06:57;76598.66;;;-145.72;100.00
15914;BME280;8055;51.930;8.840;2024-03-22T00:09:23;76602.81;;;-145.72;100.00
15914;BME280;8055;51.930;8.840;2024-03-22T00:11:48;76604.88;;;-145.72;100.00
15914;BME280;8055;51.930;8.840;2024-03-22T00:14:14;76590.38;;;-145.72;100.00
15914;BME280;8055;51.930;8.840;2024-03-22T00:16:39;76596.59;;;-145.72;100.00
15914;BME280;8055;51.930;8.840;2024-03-22T00:19:04;76598.66;;;-145.72;100.00
15914;BME280;8055;51.930;8.840;2024-03-22T00:21:30;76602.81;;;-145.72;100.00
15914;BME280;8055;51.930;8.840;2024-03-22T00:23:56;76598.66;;;-145.72;100.00
15914;BME280;8055;51.930;8.840;2024-03-22T00:26:22;76592.47;;;-145.72;100.00
15914;BME280;8055;51.930;8.840;2024-03-22T00:28:47;76594.53;;;-145.72;100.00
15914;BME280;8055;51.930;8.840;2024-03-22T00:31:13;76598.66;;;-145.72;100.00
15914;BME280;8055;51.930;8.840;2024-03-22T00:33:38;76606.94;;;-145.72;100.00
15914;BME280;8055;51.930;8.840;2024-03-22T00:36:04;76606.94;;;-145.72;100.00
15914;BME280;8055;51.930;8.840;2024-03-22T00:38:29;76604.88;;;-145.72;100.00
15914;BME280;8055;51.930;8.840;2024-03-22T00:40:55;76602.81;;;-145.72;100.00
15914;BME280;8055;51.930;8.840;2024-03-22T00:43:20;76598.66;;;-145.72;100.00
15914;BME280;8055;51.930;8.840;2024-03-22T00:45:46;76600.75;;;-145.72;100.00
15914;BME280;8055;51.930;8.840;2024-03-22T00:48:11;76598.66;;;-145.72;100.00
15914;BME280;8055;51.930;8.840;2024-03-22T00:50:37;76592.47;;;-145.72;100.00
15914;BME280;8055;51.930;8.840;2024-03-22T00:53:02;76577.97;;;-145.72;100.00
15914;BME280;8055;51.930;8.840;2024-03-22T00:55:29;76584.19;;;-145.72;100.00
15914;BME280;8055;51.930;8.840;2024-03-22T00:57:54;76582.13;;;-145.72;100.00
15914;BME280;8055;51.930;8.840;2024-03-22T01:00:19;76571.75;;;-145.72;100.00
15914;BME280;8055;51.930;8.840;2024-03-22T01:02:45;76573.84;;;-145.72;100.00
15914;BME280;8055;51.930;8.840;2024-03-22T01:05:10;76563.47;;;-145.72;100.00
15914;BME280;8055;51.930;8.840;2024-03-22T01:07:36;76553.13;;;-145.72;100.00
15914;BME280;8055;51.930;8.840;2024-03-22T01:10:03;76551.06;;;-145.72;100.00
15914;BME280;8055;51.930;8.840;2024-03-22T01:12:28;76561.41;;;-145.72;100.00
15914;BME280;8055;51.930;8.840;2024-03-22T01:14:54;76559.34;;;-145.72;100.00
15914;BME280;8055;51.930;8.840;2024-03-22T01:17:19;76546.94;;;-145.72;100.00
15914;BME280;8055;51.930;8.840;2024-03-22T01:19:45;76559.34;;;-145.72;100.00
15914;BME280;8055;51.930;8.840;2024-03-22T01:22:10;76557.28;;;-145.72;100.00
15914;BME280;8055;51.930;8.840;2024-03-22T01:24:35;76544.84;;;-145.72;100.00
15914;BME280;8055;51.930;8.840;2024-03-22T01:27:01;76540.72;;;-145.72;100.00
15914;BME280;8055;51.930;8.840;2024-03-22T01:29:26;76528.31;;;-145.72;100.00
15914;BME280;8055;51.930;8.840;2024-03-22T01:31:55;76540.72;;;-145.72;100.00
15914;BME280;8055;51.930;8.840;2024-03-22T01:34:20;76536.59;;;-145.72;100.00
15914;BME280;8055;51.930;8.840;2024-03-22T01:36:46;76540.72;;;-145.72;100.00
15914;BME280;8055;51.930;8.840;2024-03-22T01:39:11;76536.59;;;-145.72;100.00
15914;BME280;8055;51.930;8.840;2024-03-22T01:41:36;76526.22;;;-145.72;100.00
15914;BME280;8055;51.930;8.840;2024-03-22T01:44:02;76530.38;;;-145.72;100.00
15914;BME280;8055;51.930;8.840;2024-03-22T01:46:27;76526.22;;;-145.72;100.00
15914;BME280;8055;51.930;8.840;2024-03-22T01:48:53;76524.16;;;-145.72;100.00
15914;BME280;8055;51.930;8.840;2024-03-22T01:51:18;76507.59;;;-145.72;100.00
15914;BME280;8055;51.930;8.840;2024-03-22T01:53:43;76497.25;;;-145.72;100.00
15914;BME280;8055;51.930;8.840;2024-03-22T01:56:10;76501.41;;;-145.72;100.00
15914;BME280;8055;51.930;8.840;2024-03-22T01:58:35;76503.47;;;-145.72;100.00
15914;BME280;8055;51.930;8.840;2024-03-22T02:01:01;76499.31;;;-145.72;100.00
15914;BME280;8055;51.930;8.840;2024-03-22T02:03:27;76499.31;;;-145.72;100.00
15914;BME280;8055;51.930;8.840;2024-03-22T02:05:52;76486.91;;;-145.72;100.00
15914;BME280;8055;51.930;8.840;2024-03-22T02:08:18;76484.84;;;-145.72;100.00
15914;BME280;8055;51.930;8.840;2024-03-22T02:10:45;76478.63;;;-145.72;100.00
15914;BME280;8055;51.930;8.840;2024-03-22T02:13:10;76449.66;;;-145.72;100.00
15914;BME280;8055;51.930;8.840;2024-03-22T02:15:35;76447.59;;;-145.72;100.00
15914;BME280;8055;51.930;8.840;2024-03-22T02:18:01;76453.78;;;-145.72;100.00
15914;BME280;8055;51.930;8.840;2024-03-22T02:20:26;76449.66;;;-145.72;100.00
15914;BME280;8055;51.930;8.840;2024-03-22T02:22:51;76439.31;;;-145.72;100.00
15914;BME280;8055;51.930;8.840;2024-03-22T02:25:17;76435.16;;;-145.72;100.00
15914;BME280;8055;51.930;8.840;2024-03-22T02:27:43;76418.63;;;-145.72;100.00
15914;BME280;8055;51.930;8.840;2024-03-22T02:30:08;76420.69;;;-145.72;100.00
15914;BME280;8055;51.930;8.840;2024-03-22T02:32:34;76422.75;;;-145.72;100.00
15914;BME280;8055;51.930;8.840;2024-03-22T02:34:59;76422.75;;;-145.72;100.00
15914;BME280;8055;51.930;8.840;2024-03-22T02:37:24;76424.81;;;-145.72;100.00
15914;BME280;8055;51.930;8.840;2024-03-22T02:39:50;76412.41;;;-145.72;100.00
15914;BME280;8055;51.930;8.840;2024-03-22T02:42:15;76410.34;;;-145.72;100.00
15914;BME280;8055;51.930;8.840;2024-03-22T02:44:40;76406.19;;;-145.72;100.00
15914;BME280;8055;51.930;8.840;2024-03-22T02:47:11;76402.06;;;-145.72;100.00
15914;BME280;8055;51.930;8.840;2024-03-22T02:49:39;76408.25;;;-145.72;100.00
15914;BME280;8055;51.930;8.840;2024-03-22T02:52:04;76397.91;;;-145.72;100.00
15914;BME280;8055;51.930;8.840;2024-03-22T02:54:30;76397.91;;;-145.72;100.00
15914;BME280;8055;51.930;8.840;2024-03-22T02:56:55;76406.19;;;-145.72;100.00
15914;BME280;8055;51.930;8.840;2024-03-22T02:59:21;76391.72;;;-145.72;100.00
15914;BME280;8055;51.930;8.840;2024-03-22T03:01:46;76391.72;;;-145.72;100.00
15914;BME280;8055;51.930;8.840;2024-03-22T03:04:11;76395.84;;;-145.72;100.00
15914;BME280;8055;51.930;8.840;2024-03-22T03:06:37;76395.84;;;-145.72;100.00
15914;BME280;8055;51.930;8.840;2024-03-22T03:09:02;76389.63;;;-145.72;100.00
15914;BME280;8055;51.930;8.840;2024-03-22T03:11:30;76383.44;;;-145.72;100.00
15914;BME280;8055;51.930;8.840;2024-03-22T03:13:55;76379.28;;;-145.72;100.00
15914;BME280;8055;51.930;8.840;2024-03-22T03:16:20;76379.28;;;-145.72;100.00
15914;BME280;8055;51.930;8.840;2024-03-22T03:18:46;76371.00;;;-145.72;100.00
15914;BME280;8055;51.930;8.840;2024-03-22T03:21:11;76371.00;;;-145.72;100.00
15914;BME280;8055;51.930;8.840;2024-03-22T03:23:36;76368.94;;;-145.72;100.00
15914;BME280;8055;51.930;8.840;2024-03-22T03:26:02;76371.00;;;-145.72;100.00
15914;BME280;8055;51.930;8.840;2024-03-22T03:28:27;76354.47;;;-145.72;100.00
15914;BME280;8055;51.930;8.840;2024-03-22T03:30:53;76354.47;;;-145.72;100.00
15914;BME280;8055;51.930;8.840;2024-03-22T03:33:18;76344.09;;;-145.72;100.00
15914;BME280;8055;51.930;8.840;2024-03-22T03:35:46;76337.91;;;-145.72;100.00
15914;BME280;8055;51.930;8.840;2024-03-22T03:38:12;76319.28;;;-145.72;100.00
15914;BME280;8055;51.930;8.840;2024-03-22T03:40:38;76327.56;;;-145.72;100.00
15914;BME280;8055;51.930;8.840;2024-03-22T03:43:03;76333.75;;;-145.72;100.00
15914;BME280;8055;51.930;8.840;2024-03-22T03:45:28;76325.47;;;-145.72;100.00
15914;BME280;8055;51.930;8.840;2024-03-22T03:47:54;76325.47;;;-145.72;100.00
15914;BME280;8055;51.930;8.840;2024-03-22T03:50:19;76317.22;;;-145.72;100.00
15914;BME280;8055;51.930;8.840;2024-03-22T03:52:44;76321.34;;;-145.72;100.00
15914;BME280;8055;51.930;8.840;2024-03-22T03:55:10;76313.06;;;-145.72;100.00
15914;BME280;8055;51.930;8.840;2024-03-22T03:57:35;76311.00;;;-145.72;100.00
15914;BME280;8055;51.930;8.840;2024-03-22T04:00:01;76304.78;;;-145.72;100.00
15914;BME280;8055;51.930;8.840;2024-03-22T04:02:26;76304.78;;;-145.72;100.00
15914;BME280;8055;51.930;8.840;2024-03-22T04:04:53;76296.50;;;-145.72;100.00
15914;BME280;8055;51.930;8.840;2024-03-22T04:07:20;76296.50;;;-145.72;100.00
15914;BME280;8055;51.930;8.840;2024-03-22T04:09:45;76286.16;;;-145.72;100.00
15914;BME280;8055;51.930;8.840;2024-03-22T04:12:10;76277.88;;;-145.72;100.00
15914;BME280;8055;51.930;8.840;2024-03-22T04:14:36;76267.53;;;-145.72;100.00
15914;BME280;8055;51.930;8.840;2024-03-22T04:17:01;76271.69;;;-145.72;100.00
15914;BME280;8055;51.930;8.840;2024-03-22T04:19:26;76267.53;;;-145.72;100.00
15914;BME280;8055;51.930;8.840;2024-03-22T04:21:52;76259.25;;;-145.72;100.00
15914;BME280;8055;51.930;8.840;2024-03-22T04:24:17;76255.13;;;-145.72;100.00
15914;BME280;8055;51.930;8.840;2024-03-22T04:26:42;76253.06;;;-145.72;100.00
15914;BME280;8055;51.930;8.840;2024-03-22T04:29:08;76244.78;;;-145.72;100.00
15914;BME280;8055;51.930;8.840;2024-03-22T04:31:33;76244.78;;;-145.72;100.00
15914;BME280;8055;51.930;8.840;2024-03-22T04:33:58;76232.34;;;-145.72;100.00
15914;BME280;8055;51.930;8.840;2024-03-22T04:36:24;76230.28;;;-145.72;100.00
15914;BME280;8055;51.930;8.840;2024-03-22T04:38:49;76224.09;;;-145.72;100.00
15914;BME280;8055;51.930;8.840;2024-03-22T04:41:14;76232.34;;;-145.72;100.00
15914;BME280;8055;51.930;8.840;2024-03-22T04:43:40;76215.81;;;-145.72;100.00
15914;BME280;8055;51.930;8.840;2024-03-22T04:46:05;76215.81;;;-145.72;100.00
15914;BME280;8055;51.930;8.840;2024-03-22T04:48:31;76224.09;;;-145.72;100.00
15914;BME280;8055;51.930;8.840;2024-03-22T04:50:56;76230.28;;;-145.72;100.00
15914;BME280;8055;51.930;8.840;2024-03-22T04:53:22;76226.16;;;-145.72;100.00
15914;BME280;8055;51.930;8.840;2024-03-22T04:55:47;76222.00;;;-145.72;100.00
15914;BME280;8055;51.930;8.840;2024-03-22T04:58:20;76213.72;;;-145.72;100.00
15914;BME280;8055;51.930;8.840;2024-03-22T05:00:47;76217.88;;;-145.72;100.00
15914;BME280;8055;51.930;8.840;2024-03-22T05:03:13;76207.53;;;-145.72;100.00
15914;BME280;8055;51.930;8.840;2024-03-22T05:05:39;76207.53;;;-145.72;100.00
15914;BME280;8055;51.930;8.840;2024-03-22T05:08:06;76213.72;;;-145.72;100.00
15914;BME280;8055;51.930;8.840;2024-03-22T05:10:32;76222.00;;;-145.72;100.00
15914;BME280;8055;51.930;8.840;2024-03-22T05:12:58;76217.88;;;-145.72;100.00
15914;BME280;8055;51.930;8.840;2024-03-22T05:15:24;76205.44;;;-145.72;100.00
15914;BME280;8055;51.930;8.840;2024-03-22T05:17:53;76213.72;;;-145.72;100.00
15914;BME280;8055;51.930;8.840;2024-03-22T05:20:19;76199.25;;;-145.72;100.00
15914;BME280;8055;51.930;8.840;2024-03-22T05:22:45;76201.31;;;-145.72;100.00
15914;BME280;8055;51.930;8.840;2024-03-22T05:25:10;76207.53;;;-145.72;100.00
15914;BME280;8055;51.930;8.840;2024-03-22T05:27:37;76213.72;;;-145.72;100.00
15914;BME280;8055;51.930;8.840;2024-03-22T05:30:03;76209.59;;;-145.72;100.00
15914;BME280;8055;51.930;8.840;2024-03-22T05:32:31;76197.19;;;-145.72;100.00
15914;BME280;8055;51.930;8.840;2024-03-22T05:34:56;76190.97;;;-145.72;100.00
15914;BME280;8055;51.930;8.840;2024-03-22T05:37:22;76174.41;;;-145.72;100.00
15914;BME280;8055;51.930;8.840;2024-03-22T05:39:47;76180.63;;;-145.72;100.00
15914;BME280;8055;51.930;8.840;2024-03-22T05:42:13;76190.97;;;-145.72;100.00
15914;BME280;8055;51.930;8.840;2024-03-22T05:44:38;76180.63;;;-145.72;100.00
15914;BME280;8055;51.930;8.840;2024-03-22T05:47:04;76172.34;;;-145.72;100.00
15914;BME280;8055;51.930;8.840;2024-03-22T05:49:29;76164.06;;;-145.72;100.00
15914;BME280;8055;51.930;8.840;2024-03-22T05:51:55;76164.06;;;-145.72;100.00
15914;BME280;8055;51.930;8.840;2024-03-22T05:54:20;76155.78;;;-145.72;100.00
15914;BME280;8055;51.930;8.840;2024-03-22T05:56:46;76164.06;;;-145.72;100.00
15914;BME280;8055;51.930;8.840;2024-03-22T05:59:11;76139.22;;;-145.72;100.00
15914;BME280;8055;51.930;8.840;2024-03-22T06:01:36;76137.16;;;-145.72;100.00
15914;BME280;8055;51.930;8.840;2024-03-22T06:04:03;76128.88;;;-145.72;100.00
15914;BME280;8055;51.930;8.840;2024-03-22T06:06:29;76124.75;;;-145.72;100.00
15914;BME280;8055;51.930;8.840;2024-03-22T06:08:54;76133.03;;;-145.72;100.00
15914;BME280;8055;51.930;8.840;2024-03-22T06:11:22;76120.59;;;-145.72;100.00
15914;BME280;8055;51.930;8.840;2024-03-22T06:13:47;76122.69;;;-145.72;100.00
15914;BME280;8055;51.930;8.840;2024-03-22T06:16:13;76120.59;;;-145.72;100.00
15914;BME280;8055;51.930;8.840;2024-03-22T06:18:39;76128.88;;;-145.72;100.00
15914;BME280;8055;51.930;8.840;2024-03-22T06:21:04;76120.59;;;-145.72;100.00
15914;BME280;8055;51.930;8.840;2024-03-22T06:23:30;76116.47;;;-145.72;100.00
15914;BME280;8055;51.930;8.840;2024-03-22T06:25:56;76108.19;;;-145.72;100.00
15914;BME280;8055;51.930;8.840;2024-03-22T06:28:22;76106.13;;;-145.72;100.00
15914;BME280;8055;51.930;8.840;2024-03-22T06:30:47;76110.25;;;-145.72;100.00
15914;BME280;8055;51.930;8.840;2024-03-22T06:33:13;76104.06;;;-145.72;100.00
15914;BME280;8055;51.930;8.840;2024-03-22T06:35:38;76097.84;;;-145.72;100.00
15914;BME280;8055;51.930;8.840;2024-03-22T06:38:04;76075.09;;;-145.72;100.00
15914;BME280;8055;51.930;8.840;2024-03-22T06:40:30;76081.28;;;-145.72;100.00
15914;BME280;8055;51.930;8.840;2024-03-22T06:42:55;76070.94;;;-145.72;100.00
15914;BME280;8055;51.930;8.840;2024-03-22T06:45:20;76066.81;;;-145.72;100.00
15914;BME280;8055;51.930;8.840;2024-03-22T06:47:46;76066.81;;;-145.72;100.00
15914;BME280;8055;51.930;8.840;2024-03-22T06:50:11;76056.47;;;-145.72;100.00
15914;BME280;8055;51.930;8.840;2024-03-22T06:52:37;76052.31;;;-145.72;100.00
15914;BME280;8055;51.930;8.840;2024-03-22T06:55:02;76033.69;;;-145.72;100.00
15914;BME280;8055;51.930;8.840;2024-03-22T06:57:28;76039.91;;;-145.72;100.00
15914;BME280;8055;51.930;8.840;2024-03-22T06:59:54;76041.97;;;-145.72;100.00
15914;BME280;8055;51.930;8.840;2024-03-22T07:02:19;76048.19;;;-145.72;100.00
15914;BME280;8055;51.930;8.840;2024-03-22T07:04:45;76031.63;;;-145.72;100.00
15914;BME280;8055;51.930;8.840;2024-03-22T07:07:10;76035.75;;;-145.72;100.00
15914;BME280;8055;51.930;8.840;2024-03-22T07:09:36;76027.47;;;-145.72;100.00
15914;BME280;8055;51.930;8.840;2024-03-22T07:12:02;76015.06;;;-145.72;100.00
15914;BME280;8055;51.930;8.840;2024-03-22T07:14:27;76008.84;;;-145.72;100.00
15914;BME280;8055;51.930;8.840;2024-03-22T07:16:53;76010.94;;;-145.72;100.00
15914;BME280;8055;51.930;8.840;2024-03-22T07:19:20;75994.38;;;-145.72;100.00
15914;BME280;8055;51.930;8.840;2024-03-22T07:21:46;75986.09;;;-145.72;100.00
15914;BME280;8055;51.930;8.840;2024-03-22T07:24:11;75996.44;;;-145.72;100.00
15914;BME280;8055;51.930;8.840;2024-03-22T07:26:37;75998.50;;;-145.72;100.00
15914;BME280;8055;51.930;8.840;2024-03-22T07:29:02;75998.50;;;-145.72;100.00
15914;BME280;8055;51.930;8.840;2024-03-22T07:31:28;75988.16;;;-145.72;100.00
15914;BME280;8055;51.930;8.840;2024-03-22T07:33:53;75988.16;;;-145.72;100.00
15914;BME280;8055;51.930;8.840;2024-03-22T07:36:19;75990.25;;;-145.72;100.00
15914;BME280;8055;51.930;8.840;2024-03-22T07:38:44;75986.09;;;-145.72;100.00
15914;BME280;8055;51.930;8.840;2024-03-22T07:41:10;75988.16;;;-145.72;100.00
15914;BME280;8055;51.930;8.840;2024-03-22T07:43:35;75967.47;;;-145.72;100.00
15914;BME280;8055;51.930;8.840;2024-03-22T07:46:01;75967.47;;;-145.72;100.00
15914;BME280;8055;51.930;8.840;2024-03-22T07:48:26;75959.19;;;-145.72;100.00
15914;BME280;8055;51.930;8.840;2024-03-22T07:50:58;75961.25;;;-145.72;100.00
15914;BME280;8055;51.930;8.840;2024-03-22T07:53:24;75950.91;;;-145.72;100.00
15914;BME280;8055;51.930;8.840;2024-03-22T07:55:50;75957.13;;;-145.72;100.00
15914;BME280;8055;51.930;8.840;2024-03-22T07:58:15;75946.78;;;-145.72;100.00
15914;BME280;8055;51.930;8.840;2024-03-22T08:00:40;75940.56;;;-145.72;100.00
15914;BME280;8055;51.930;8.840;2024-03-22T08:03:06;75944.72;;;-145.72;100.00
15914;BME280;8055;51.930;8.840;2024-03-22T08:05:32;75938.50;;;-145.72;100.00
15914;BME280;8055;51.930;8.840;2024-03-22T08:07:57;75928.16;;;-145.72;100.00
15914;BME280;8055;51.930;8.840;2024-03-22T08:10:23;75930.22;;;-145.72;100.00
15914;BME280;8055;51.930;8.840;2024-03-22T08:12:48;75924.03;;;-145.72;100.00
15914;BME280;8055;51.930;8.840;2024-03-22T08:15:14;75907.47;;;-145.72;100.00
15914;BME280;8055;51.930;8.840;2024-03-22T08:17:40;75907.47;;;-145.72;100.00
15914;BME280;8055;51.930;8.840;2024-03-22T08:20:06;75913.66;;;-145.72;100.00
15914;BME280;8055;51.930;8.840;2024-03-22T08:22:32;75907.47;;;-145.72;100.00
15914;BME280;8055;51.930;8.840;2024-03-22T08:24:57;75892.97;;;-145.72;100.00
15914;BME280;8055;51.930;8.840;2024-03-22T08:27:22;75895.03;;;-145.72;100.00
15914;BME280;8055;51.930;8.840;2024-03-22T08:29:48;75897.13;;;-145.72;100.00
15914;BME280;8055;51.930;8.840;2024-03-22T08:32:13;75884.69;;;-145.72;100.00
15914;BME280;8055;51.930;8.840;2024-03-22T08:34:39;75890.91;;;-145.72;100.00
15914;BME280;8055;51.930;8.840;2024-03-22T08:37:04;75878.50;;;-145.72;100.00
15914;BME280;8055;51.930;8.840;2024-03-22T08:39:30;75866.06;;;-145.72;100.00
15914;BME280;8055;51.930;8.840;2024-03-22T08:41:55;75878.50;;;-145.72;100.00
15914;BME280;8055;51.930;8.840;2024-03-22T08:44:21;75845.38;;;-145.72;100.00
15914;BME280;8055;51.930;8.840;2024-03-22T08:46:47;75845.38;;;-145.72;100.00
15914;BME280;8055;51.930;8.840;2024-03-22T08:49:13;75835.03;;;-145.72;100.00
15914;BME280;8055;51.930;8.840;2024-03-22T08:51:39;75837.09;;;-145.72;100.00
15914;BME280;8055;51.930;8.840;2024-03-22T08:54:04;75812.28;;;-145.72;100.00
15914;BME280;8055;51.930;8.840;2024-03-22T08:56:30;75804.00;;;-145.72;98.82
15914;BME280;8055;51.930;8.840;2024-03-22T08:58:55;75804.00;;;-145.72;99.37
15914;BME280;8055;51.930;8.840;2024-03-22T09:01:21;75824.69;;;-145.72;97.99
15914;BME280;8055;51.930;8.840;2024-03-22T09:03:47;75804.00;;;-145.72;99.45
15914;BME280;8055;51.930;8.840;2024-03-22T09:06:14;75806.06;;;-145.72;100.00
15914;BME280;8055;51.930;8.840;2024-03-22T09:08:40;75799.88;;;-145.72;98.30
15914;BME280;8055;51.930;8.840;2024-03-22T09:11:05;75768.81;;;-145.72;95.76
15914;BME280;8055;51.930;8.840;2024-03-22T09:13:31;75795.72;;;-145.72;96.67
15914;BME280;8055;51.930;8.840;2024-03-22T09:15:58;75779.16;;;-145.72;97.00
15914;BME280;8055;51.930;8.840;2024-03-22T09:18:24;75791.59;;;-145.72;96.26
15914;BME280;8055;51.930;8.840;2024-03-22T09:20:50;75779.16;;;-145.72;95.34
15914;BME280;8055;51.930;8.840;2024-03-22T09:23:15;75789.50;;;-145.72;96.67
15914;BME280;8055;51.930;8.840;2024-03-22T09:25:40;75758.47;;;-145.72;94.58
15914;BME280;8055;51.930;8.840;2024-03-22T09:28:06;75762.63;;;-145.72;95.25
15914;BME280;8055;51.930;8.840;2024-03-22T09:30:31;75762.63;;;-145.72;94.20
15914;BME280;8055;51.930;8.840;2024-03-22T09:32:56;75731.56;;;-145.72;92.37
15914;BME280;8055;51.930;8.840;2024-03-22T09:35:23;75731.56;;;-145.72;94.47
15914;BME280;8055;51.930;8.840;2024-03-22T09:37:48;75723.31;;;-145.72;93.40
15914;BME280;8055;51.930;8.840;2024-03-22T09:40:13;75704.69;;;-145.72;91.82
15914;BME280;8055;51.930;8.840;2024-03-22T09:42:41;75698.47;;;-145.72;90.80
15914;BME280;8055;51.930;8.840;2024-03-22T09:45:10;75667.44;;;-145.72;90.83
15914;BME280;8055;51.930;8.840;2024-03-22T09:47:37;75663.28;;;-145.72;89.16
15914;BME280;8055;51.930;8.840;2024-03-22T09:50:06;75657.09;;;-145.72;88.81
15914;BME280;8055;51.930;8.840;2024-03-22T09:52:33;75642.59;;;-145.72;89.13
15914;BME280;8055;51.930;8.840;2024-03-22T09:54:58;75638.47;;;-145.72;87.62
15914;BME280;8055;51.930;8.840;2024-03-22T09:59:59;75640.53;;;-145.72;86.42
15914;BME280;8055;51.930;8.840;2024-03-22T10:02:25;75634.31;;;-145.72;83.64
15914;BME280;8055;51.930;8.840;2024-03-22T10:04:51;75640.53;;;-145.72;83.71
15914;BME280;8055;51.930;8.840;2024-03-22T10:07:17;75642.59;;;-145.72;82.51
15914;BME280;8055;51.930;8.840;2024-03-22T10:09:42;75644.66;;;-145.72;84.06
15914;BME280;8055;51.930;8.840;2024-03-22T10:12:09;75634.31;;;-145.72;83.33
15914;BME280;8055;51.930;8.840;2024-03-22T10:14:34;75634.31;;;-145.72;83.99
15914;BME280;8055;51.930;8.840;2024-03-22T10:17:02;75642.59;;;-145.72;83.63
15914;BME280;8055;51.930;8.840;2024-03-22T10:19:27;75617.78;;;-145.72;85.35
15914;BME280;8055;51.930;8.840;2024-03-22T10:22:05;75626.06;;;-145.72;84.77
15914;BME280;8055;51.930;8.840;2024-03-22T10:24:31;75619.84;;;-145.72;82.63
15914;BME280;8055;51.930;8.840;2024-03-22T10:26:58;75603.28;;;-145.72;79.39
15914;BME280;8055;51.930;8.840;2024-03-22T10:29:23;75595.00;;;-145.72;78.71
15914;BME280;8055;51.930;8.840;2024-03-22T10:31:51;75580.53;;;-145.72;77.31
15914;BME280;8055;51.930;8.840;2024-03-22T10:34:17;75572.25;;;-145.72;76.51
15914;BME280;8055;51.930;8.840;2024-03-22T10:36:43;75566.03;;;-145.72;76.29
15914;BME280;8055;51.930;8.840;2024-03-22T10:39:10;75530.88;;;-145.72;75.93
15914;BME280;8055;51.930;8.840;2024-03-22T10:41:38;75506.03;;;-145.72;75.18
15914;BME280;8055;51.930;8.840;2024-03-22T10:44:03;75477.06;;;-145.72;76.05
15914;BME280;8055;51.930;8.840;2024-03-22T10:46:30;75452.25;;;-145.72;73.79
15914;BME280;8055;51.930;8.840;2024-03-22T10:48:57;75443.97;;;-145.72;73.16
15914;BME280;8055;51.930;8.840;2024-03-22T10:51:24;75466.72;;;-145.72;71.65
15914;BME280;8055;51.930;8.840;2024-03-22T10:53:52;75493.63;;;-145.72;70.34
15914;BME280;8055;51.930;8.840;2024-03-22T10:56:20;75522.59;;;-145.72;72.67
15914;BME280;8055;51.930;8.840;2024-03-22T10:58:47;75535.00;;;-145.72;74.30
15914;BME280;8055;51.930;8.840;2024-03-22T11:01:23;75524.66;;;-145.72;73.73
15914;BME280;8055;51.930;8.840;2024-03-22T11:03:48;75543.28;;;-145.72;76.14
15914;BME280;8055;51.930;8.840;2024-03-22T11:06:18;75555.69;;;-145.72;75.75
15914;BME280;8055;51.930;8.840;2024-03-22T11:08:43;75547.41;;;-145.72;75.77
15914;BME280;8055;51.930;8.840;2024-03-22T11:11:10;75528.81;;;-145.72;74.39
15914;BME280;8055;51.930;8.840;2024-03-22T11:13:36;75532.94;;;-145.72;74.48
15914;BME280;8055;51.930;8.840;2024-03-22T11:16:02;75530.88;;;-145.72;75.51
15914;BME280;8055;51.930;8.840;2024-03-22T11:18:27;75537.06;;;-145.72;76.36
15914;BME280;8055;51.930;8.840;2024-03-22T11:20:53;75524.66;;;-145.72;75.46
15914;BME280;8055;51.930;8.840;2024-03-22T11:23:19;75512.25;;;-145.72;75.77
15914;BME280;8055;51.930;8.840;2024-03-22T11:25:45;75506.03;;;-145.72;76.59
15914;BME280;8055;51.930;8.840;2024-03-22T11:28:11;75493.63;;;-145.72;77.16
15914;BME280;8055;51.930;8.840;2024-03-22T11:30:37;75489.50;;;-145.72;77.02
15914;BME280;8055;51.930;8.840;2024-03-22T11:33:04;75468.78;;;-145.72;77.50
15914;BME280;8055;51.930;8.840;2024-03-22T11:35:31;75481.22;;;-145.72;76.36
15914;BME280;8055;51.930;8.840;2024-03-22T11:37:56;75479.13;;;-145.72;77.09
15914;BME280;8055;51.930;8.840;2024-03-22T11:40:25;75491.56;;;-145.72;77.05
15914;BME280;8055;51.930;8.840;2024-03-22T11:42:52;75470.88;;;-145.72;79.00
15914;BME280;8055;51.930;8.840;2024-03-22T11:45:19;75462.59;;;-145.72;77.54
15914;BME280;8055;51.930;8.840;2024-03-22T11:47:46;75450.19;;;-145.72;77.88
15914;BME280;8055;51.930;8.840;2024-03-22T11:50:12;75439.81;;;-145.72;77.42
15914;BME280;8055;51.930;8.840;2024-03-22T11:52:44;75439.81;;;-145.72;77.35
15914;BME280;8055;51.930;8.840;2024-03-22T11:55:12;75458.44;;;-145.72;79.93
15914;BME280;8055;51.930;8.840;2024-03-22T11:57:38;75466.72;;;-145.72;78.71
15914;BME280;8055;51.930;8.840;2024-03-22T12:00:04;75464.66;;;-145.72;79.90
15914;BME280;8055;51.930;8.840;2024-03-22T12:02:38;75468.78;;;-145.72;79.99
15914;BME280;8055;51.930;8.840;2024-03-22T12:05:04;75475.00;;;-145.72;80.38
15914;BME280;8055;51.930;8.840;2024-03-22T12:07:30;75485.34;;;-145.72;82.97
15914;BME280;8055;51.930;8.840;2024-03-22T12:09:56;75487.41;;;-145.72;81.49
15914;BME280;8055;51.930;8.840;2024-03-22T12:12:22;75493.63;;;-145.72;81.64
15914;BME280;8055;51.930;8.840;2024-03-22T12:14:48;75493.63;;;-145.72;81.80
15914;BME280;8055;51.930;8.840;2024-03-22T12:17:15;75495.69;;;-145.72;81.93
15914;BME280;8055;51.930;8.840;2024-03-22T12:19:41;75497.75;;;-145.72;85.00
15914;BME280;8055;51.930;8.840;2024-03-22T12:22:06;75510.19;;;-145.72;82.58
15914;BME280;8055;51.930;8.840;2024-03-22T12:24:32;75501.91;;;-145.72;83.37
15914;BME280;8055;51.930;8.840;2024-03-22T12:26:57;75495.69;;;-145.72;83.23
15914;BME280;8055;51.930;8.840;2024-03-22T12:29:23;75503.97;;;-145.72;83.73
15914;BME280;8055;51.930;8.840;2024-03-22T12:31:49;75518.44;;;-145.72;85.12
15914;BME280;8055;51.930;8.840;2024-03-22T12:34:15;75528.81;;;-145.72;86.09
15914;BME280;8055;51.930;8.840;2024-03-22T12:36:42;75524.66;;;-145.72;86.01
15914;BME280;8055;51.930;8.840;2024-03-22T12:39:07;75518.44;;;-145.72;86.15